Time;durP1;ratioP1;P1;durP2;ratioP2;P2;SDS_P1;SDS_P2;PMS_P1;PMS_P2;Temp;Humidity;BMP_temperature;BMP_pressure;BME280_temperature;BME280_humidity;BME280_pressure;Samples;Min_cycle;Max_cycle;Signal;HPM_P1;HPM_P2
2022/08/15 00:01:35;;;;;;;10.00;6.30;;;;;;;22.63;56.76;99817.21;107258;1282;61353;-79
2022/08/15 00:04:11;;;;;;;7.70;6.60;;;;;;;22.57;56.76;99815.02;107323;1281;60516;-79
2022/08/15 00:06:58;;;;;;;8.50;6.90;;;;;;;22.52;56.94;99811.96;107311;1281;78217;-79
2022/08/15 00:09:28;;;;;;;9.90;6.80;;;;;;;22.48;57.07;99806.89;107197;1284;72398;-79
2022/08/15 00:12:17;;;;;;;7.70;7.00;;;;;;;22.44;57.35;99802.47;107419;1280;74288;-79
2022/08/15 00:15:05;;;;;;;7.30;6.60;;;;;;;22.38;57.65;99801.73;107329;1281;61453;-79
2022/08/15 00:17:36;;;;;;;7.40;6.60;;;;;;;22.35;57.83;99803.48;107363;1281;60608;-79
2022/08/15 00:20:15;;;;;;;7.80;7.00;;;;;;;22.29;58.08;99800.25;107166;1283;75696;-79
2022/08/15 00:22:58;;;;;;;7.60;6.60;;;;;;;22.23;58.49;99802.95;107346;1281;71195;-79
2022/08/15 00:25:26;;;;;;;7.80;6.90;;;;;;;22.15;58.66;99804.25;107001;1282;73165;-79
2022/08/15 00:27:53;;;;;;;7.60;6.80;;;;;;;22.09;58.89;99805.17;106961;1281;64058;-79
2022/08/15 00:30:21;;;;;;;8.00;6.90;;;;;;;22.03;59.17;99801.73;106886;1282;61979;-79
2022/08/15 00:32:56;;;;;;;9.40;6.90;;;;;;;21.95;59.40;99799.86;107275;1282;78364;-79
2022/08/15 00:35:49;;;;;;;10.20;6.90;;;;;;;21.85;59.47;99796.90;107412;1281;74366;-79
2022/08/15 00:38:30;;;;;;;9.10;6.90;;;;;;;21.77;59.64;99796.80;107044;1282;74082;-79
2022/08/15 00:44:11;;;;;;;10.30;7.50;;;;;;;21.65;60.08;99787.52;107276;1280;61679;-78
2022/08/15 00:46:44;;;;;;;8.30;7.40;;;;;;;21.62;60.37;99787.14;107140;1281;76555;-79
2022/08/15 00:49:12;;;;;;;8.20;7.20;;;;;;;21.55;60.58;99790.77;107150;1282;71450;-79
2022/08/15 00:51:44;;;;;;;8.70;7.50;;;;;;;21.48;60.90;99789.84;107268;1281;74218;-79
2022/08/15 00:54:26;;;;;;;7.90;7.10;;;;;;;21.43;61.32;99791.56;107183;1281;62912;-79
2022/08/15 00:57:13;;;;;;;8.30;7.50;;;;;;;21.42;61.55;99790.21;107083;1281;63175;-79
2022/08/15 00:59:51;;;;;;;10.00;7.60;;;;;;;21.42;61.60;99787.93;107457;1281;76564;-79
2022/08/15 01:02:27;;;;;;;8.20;7.40;;;;;;;21.41;61.80;99788.63;107113;1281;72410;-79
2022/08/15 01:05:06;;;;;;;9.80;7.30;;;;;;;21.40;62.03;99785.06;107321;1281;73001;-79
2022/08/15 01:07:43;;;;;;;8.10;6.90;;;;;;;21.36;62.20;99780.20;107260;1282;63438;-79
2022/08/15 01:10:12;;;;;;;9.50;7.90;;;;;;;21.34;62.28;99780.36;107337;1281;61567;-79
2022/08/15 01:12:45;;;;;;;8.40;7.40;;;;;;;21.33;62.39;99780.52;107068;1282;75961;-79
2022/08/15 01:15:15;;;;;;;8.50;7.60;;;;;;;21.32;62.51;99778.25;107073;1282;71663;-79
2022/08/15 01:17:44;;;;;;;8.60;7.60;;;;;;;21.29;62.61;99777.44;106848;1281;71874;-79
2022/08/15 01:20:24;;;;;;;8.80;7.90;;;;;;;21.26;62.67;99775.49;107241;1282;63456;-78
2022/08/15 01:23:32;;;;;;;8.60;7.70;;;;;;;21.24;62.74;99775.98;107176;1282;60758;-79
2022/08/15 01:26:21;;;;;;;8.30;7.50;;;;;;;21.22;62.85;99780.67;107295;1281;76967;-79
2022/08/15 01:29:08;;;;;;;10.20;7.80;;;;;;;21.19;63.09;99777.15;107200;1281;73453;-79
2022/08/15 01:31:36;;;;;;;9.50;8.50;;;;;;;21.17;63.13;99772.94;107454;1282;72694;-79
2022/08/15 01:34:15;;;;;;;8.90;8.00;;;;;;;21.15;63.13;99767.61;107059;1281;62994;-79
2022/08/15 01:36:44;;;;;;;9.00;8.00;;;;;;;21.13;63.25;99765.66;107473;1281;61318;-79
2022/08/15 01:39:41;;;;;;;9.30;7.90;;;;;;;21.11;63.37;99761.73;107202;1282;75701;-79
2022/08/15 01:42:22;;;;;;;9.80;8.10;;;;;;;21.09;63.33;99760.42;107108;1283;71178;-79
2022/08/15 01:44:54;;;;;;;9.90;7.90;;;;;;;21.07;63.42;99760.73;107307;1282;72982;-79
2022/08/15 01:47:59;;;;;;;9.20;7.90;;;;;;;21.06;63.43;99760.38;107366;1282;62253;-79
2022/08/15 01:50:42;;;;;;;10.70;8.40;;;;;;;21.06;63.66;99763.33;107365;1282;60960;-79
2022/08/15 01:53:23;;;;;;;9.60;8.50;;;;;;;21.04;63.86;99764.03;107224;1282;76980;-79
2022/08/15 01:55:52;;;;;;;9.20;8.20;;;;;;;20.98;64.01;99763.91;107255;1281;71382;-79
2022/08/15 01:58:22;;;;;;;12.70;9.10;;;;;;;20.95;64.08;99763.32;107421;1282;73738;-79
2022/08/15 02:00:56;;;;;;;9.40;8.20;;;;;;;20.94;64.24;99761.27;107145;1282;63267;-79
2022/08/15 02:03:33;;;;;;;9.90;8.90;;;;;;;20.93;64.38;99757.91;107227;1282;60622;-79
2022/08/15 02:06:23;;;;;;;10.40;8.00;;;;;;;20.89;64.63;99750.35;107449;1280;75778;-79
2022/08/15 02:09:02;;;;;;;9.50;8.40;;;;;;;20.87;64.57;99752.02;107360;1280;72547;-79
2022/08/15 02:11:44;;;;;;;9.80;8.90;;;;;;;20.87;64.67;99745.33;107464;1281;73522;-79
2022/08/15 02:14:31;;;;;;;10.20;8.50;;;;;;;20.86;64.68;99743.51;106854;1282;62320;-79
2022/08/15 02:17:05;;;;;;;9.20;8.30;;;;;;;20.86;64.58;99742.69;107243;1282;62305;-80
2022/08/15 02:19:32;;;;;;;9.60;8.40;;;;;;;20.87;64.76;99740.10;107181;1282;76862;-79
2022/08/15 02:22:13;;;;;;;9.50;8.50;;;;;;;20.88;64.78;99743.45;107446;1281;70386;-79
2022/08/15 02:24:52;;;;;;;10.20;8.40;;;;;;;20.87;64.95;99741.23;107302;1281;72997;-79
2022/08/15 02:27:19;;;;;;;9.90;8.30;;;;;;;20.87;65.00;99739.14;107188;1281;63370;-79
2022/08/15 02:29:47;;;;;;;8.90;7.90;;;;;;;20.87;65.00;99737.46;107416;1281;60420;-80
2022/08/15 02:32:20;;;;;;;9.60;8.50;;;;;;;20.88;64.98;99737.30;107392;1281;75598;-80
2022/08/15 02:34:59;;;;;;;10.00;8.60;;;;;;;20.87;65.13;99738.16;107446;1282;71604;-80
2022/08/15 02:37:30;;;;;;;9.40;8.40;;;;;;;20.85;65.12;99736.13;107755;1281;73465;-80
2022/08/15 02:40:06;;;;;;;9.70;8.70;;;;;;;20.84;65.22;99735.95;107407;1282;63840;-80
2022/08/15 02:42:53;;;;;;;9.30;8.40;;;;;;;20.82;65.41;99731.09;107272;1282;63416;-82
2022/08/15 02:45:20;;;;;;;10.10;8.40;;;;;;;20.81;65.40;99725.55;107226;1282;75748;-79
2022/08/15 02:47:48;;;;;;;9.60;8.20;;;;;;;20.80;65.54;99725.86;107542;1281;71403;-79
2022/08/15 02:50:17;;;;;;;9.10;8.20;;;;;;;20.77;65.47;99725.54;107258;1281;74776;-81
2022/08/15 02:52:48;;;;;;;9.60;8.40;;;;;;;20.76;65.35;99724.88;107174;1281;62744;-81
2022/08/15 02:55:20;;;;;;;9.50;8.60;;;;;;;20.74;65.32;99722.39;107308;1282;60033;-80
2022/08/15 02:57:50;;;;;;;8.90;8.00;;;;;;;20.74;65.39;99721.59;106888;1282;76922;-79
2022/08/15 03:00:27;;;;;;;9.40;8.40;;;;;;;20.74;65.48;99723.21;107420;1281;71490;-79
2022/08/15 03:02:59;;;;;;;11.20;8.30;;;;;;;20.72;65.49;99717.71;107127;1281;73142;-80
2022/08/15 03:05:29;;;;;;;9.70;8.40;;;;;;;20.72;65.59;99717.43;107539;1281;64365;-79
2022/08/15 03:07:57;;;;;;;9.10;8.10;;;;;;;20.70;65.48;99719.48;107074;1283;60348;-79
2022/08/15 03:10:24;;;;;;;9.10;8.10;;;;;;;20.69;65.75;99723.52;107340;1281;76772;-80
2022/08/15 03:13:03;;;;;;;9.60;8.60;;;;;;;20.67;65.74;99721.84;107108;1282;71429;-79
2022/08/15 03:15:45;;;;;;;9.70;8.30;;;;;;;20.66;65.79;99721.25;107346;1282;74191;-79
2022/08/15 03:18:26;;;;;;;9.40;8.20;;;;;;;20.62;65.83;99720.27;107308;1282;63390;-79
2022/08/15 03:20:59;;;;;;;9.40;8.40;;;;;;;20.62;66.03;99717.31;107378;1281;60495;-79
2022/08/15 03:23:27;;;;;;;9.30;8.30;;;;;;;20.64;65.98;99720.65;107345;1282;75946;-79
2022/08/15 03:26:12;;;;;;;9.80;8.80;;;;;;;20.66;66.06;99720.07;107203;1281;71665;-79
2022/08/15 03:28:59;;;;;;;9.40;8.40;;;;;;;20.68;65.95;99722.66;107358;1281;72614;-79
2022/08/15 03:31:34;;;;;;;11.10;8.80;;;;;;;20.70;65.99;99718.73;107137;1281;63258;-79
2022/08/15 03:34:12;;;;;;;10.30;9.00;;;;;;;20.71;65.98;99722.45;107100;1283;60341;-79
2022/08/15 03:36:45;;;;;;;9.10;8.20;;;;;;;20.72;66.04;99719.92;107109;1281;74433;-79
2022/08/15 03:39:20;;;;;;;9.80;8.80;;;;;;;20.73;65.93;99722.92;107078;1282;71388;-79
2022/08/15 03:41:47;;;;;;;11.20;9.10;;;;;;;20.75;65.91;99725.59;107126;1282;72230;-79
2022/08/15 03:44:23;;;;;;;11.80;8.70;;;;;;;20.76;66.00;99725.48;107321;1281;63409;-79
2022/08/15 03:46:54;;;;;;;10.20;9.20;;;;;;;20.74;66.39;99722.65;107052;1282;62050;-79
2022/08/15 03:49:23;;;;;;;10.10;9.10;;;;;;;20.73;66.54;99718.52;107243;1281;76222;-79
2022/08/15 03:52:10;;;;;;;10.90;8.90;;;;;;;20.73;66.56;99714.48;107132;1282;74222;-80
2022/08/15 03:54:38;;;;;;;10.00;8.70;;;;;;;20.74;66.51;99712.00;107068;1281;74423;-79
2022/08/15 03:57:12;;;;;;;10.10;9.10;;;;;;;20.76;66.40;99709.52;107221;1282;63219;-79
2022/08/15 03:59:43;;;;;;;10.30;8.30;;;;;;;20.78;66.30;99707.90;107059;1281;62018;-79
2022/08/15 04:02:11;;;;;;;9.50;8.50;;;;;;;20.80;66.22;99712.39;107111;1281;77626;-79
2022/08/15 04:04:57;;;;;;;11.90;9.00;;;;;;;20.82;66.09;99713.36;107022;1281;71595;-79
2022/08/15 04:07:25;;;;;;;10.00;8.60;;;;;;;20.85;66.01;99708.25;107297;1281;73499;-79
2022/08/15 04:10:13;;;;;;;9.50;8.50;;;;;;;20.88;65.94;99701.02;107328;1282;63274;-78
2022/08/15 04:13:01;;;;;;;11.20;9.20;;;;;;;20.89;65.87;99702.05;107370;1281;62681;-79
2022/08/15 04:15:28;;;;;;;10.00;9.00;;;;;;;20.90;65.86;99706.37;107400;1282;76006;-78
2022/08/15 04:17:57;;;;;;;9.60;8.70;;;;;;;20.91;65.93;99708.02;107440;1281;73095;-79
2022/08/15 04:20:44;;;;;;;10.90;8.50;;;;;;;20.92;65.86;99702.96;107117;1284;75541;-78
2022/08/15 04:23:18;;;;;;;10.90;8.80;;;;;;;20.94;65.91;99703.40;107193;1282;63244;-78
2022/08/15 04:25:49;;;;;;;10.40;8.60;;;;;;;20.95;65.92;99705.56;107456;1284;60667;-78
2022/08/15 04:28:24;;;;;;;9.70;8.40;;;;;;;20.94;65.98;99705.83;107209;1282;75792;-78
2022/08/15 04:31:17;;;;;;;10.60;7.70;;;;;;;20.95;66.00;99710.41;107208;1283;73035;-79
2022/08/15 04:33:44;;;;;;;10.50;7.90;;;;;;;20.95;65.93;99706.74;107549;1282;73025;-78
2022/08/15 04:36:31;;;;;;;10.90;7.60;;;;;;;20.98;65.76;99703.58;107439;1282;62846;-79
2022/08/15 04:39:00;;;;;;;9.50;7.20;;;;;;;21.01;65.51;99698.29;107430;1282;60363;-78
2022/08/15 04:41:32;;;;;;;10.80;7.90;;;;;;;21.05;65.32;99697.20;107358;1283;75689;-78
2022/08/15 04:44:03;;;;;;;8.40;7.00;;;;;;;21.10;65.32;99696.45;107713;1282;72499;-79
2022/08/15 04:46:30;;;;;;;9.30;7.20;;;;;;;21.14;65.23;99698.88;107213;1282;73143;-78
2022/08/15 04:48:58;;;;;;;8.50;6.90;;;;;;;21.19;64.94;99700.77;107420;1282;61949;-79
2022/08/15 04:51:26;;;;;;;7.80;6.90;;;;;;;21.22;64.95;99700.29;107291;1282;60657;-78
2022/08/15 04:54:02;;;;;;;7.60;6.80;;;;;;;21.25;64.68;99696.47;107595;1282;75867;-78
2022/08/15 04:56:29;;;;;;;10.50;7.10;;;;;;;21.29;64.60;99693.60;107444;1282;71814;-78
2022/08/15 04:59:16;;;;;;;7.50;6.70;;;;;;;21.33;64.49;99690.53;107363;1282;74593;-78
2022/08/15 05:02:01;;;;;;;7.90;7.10;;;;;;;21.39;64.36;99690.52;107534;1282;62597;-76
2022/08/15 05:04:48;;;;;;;8.50;6.20;;;;;;;21.43;64.17;99687.58;107479;1282;60985;-78
2022/08/15 05:07:16;;;;;;;8.80;7.10;;;;;;;21.45;64.17;99688.16;107493;1283;75737;-78
2022/08/15 05:09:43;;;;;;;8.50;6.90;;;;;;;21.48;63.97;99685.09;107124;1283;72289;-78
2022/08/15 05:12:28;;;;;;;7.60;6.30;;;;;;;21.52;64.01;99682.65;107443;1282;74423;-78
2022/08/15 05:15:02;;;;;;;8.40;6.50;;;;;;;21.56;63.96;99682.70;107460;1284;62148;-78
2022/08/15 05:17:31;;;;;;;7.00;6.40;;;;;;;21.62;63.74;99681.19;107155;1284;60003;-78
2022/08/15 05:20:19;;;;;;;7.60;6.70;;;;;;;21.68;63.62;99683.55;107535;1281;78205;-79
2022/08/15 05:22:56;;;;;;;7.30;6.60;;;;;;;21.71;63.43;99681.88;107481;1282;71360;-78
2022/08/15 05:25:28;;;;;;;8.40;6.40;;;;;;;21.76;63.48;99678.83;107470;1281;72911;-78
2022/08/15 05:27:55;;;;;;;7.30;6.50;;;;;;;21.79;63.28;99676.18;107546;1280;60988;-79
2022/08/15 05:30:24;;;;;;;8.50;6.70;;;;;;;21.83;63.17;99680.96;107667;1281;62247;-79
2022/08/15 05:33:13;;;;;;;7.80;6.30;;;;;;;21.87;63.13;99679.13;107400;1281;75643;-79
2022/08/15 05:35:42;;;;;;;7.50;6.40;;;;;;;21.91;63.22;99675.82;107618;1281;72750;-79
2022/08/15 05:38:21;;;;;;;9.70;6.90;;;;;;;21.96;63.09;99673.91;107514;1281;72971;-79
2022/08/15 05:41:19;;;;;;;8.90;6.70;;;;;;;22.00;62.90;99674.05;107443;1281;62131;-78
2022/08/15 05:44:21;;;;;;;8.70;6.70;;;;;;;22.06;62.56;99670.36;107680;1280;60653;-78
2022/08/15 05:47:12;;;;;;;8.70;6.60;;;;;;;22.11;62.56;99668.14;107681;1281;77018;-78
2022/08/15 05:50:03;;;;;;;8.50;6.50;;;;;;;22.13;62.35;99669.48;107297;1281;71485;-79
2022/08/15 05:52:48;;;;;;;7.80;6.40;;;;;;;22.15;62.29;99670.65;107248;1281;75188;-78
2022/08/15 05:55:40;;;;;;;8.70;6.50;;;;;;;22.14;62.13;99669.68;107378;1281;62059;-79
2022/08/15 05:58:34;;;;;;;7.10;6.40;;;;;;;22.17;62.16;99673.23;107380;1282;60539;-78
2022/08/15 06:01:34;;;;;;;7.50;6.40;;;;;;;22.17;62.27;99671.08;107422;1282;76296;-79
2022/08/15 06:04:06;;;;;;;7.10;6.20;;;;;;;22.17;62.40;99671.24;107283;1282;71198;-78
2022/08/15 06:06:40;;;;;;;9.00;6.50;;;;;;;22.15;62.37;99673.84;107602;1281;72966;-79
2022/08/15 06:09:30;;;;;;;8.80;6.80;;;;;;;22.13;62.52;99676.33;107302;1282;62356;-79
2022/08/15 06:12:13;;;;;;;9.10;6.20;;;;;;;22.16;62.44;99674.65;107675;1280;60603;-79
2022/08/15 06:14:59;;;;;;;7.50;6.50;;;;;;;22.21;62.69;99672.30;106877;1282;76969;-78
2022/08/15 06:17:48;;;;;;;7.30;6.60;;;;;;;22.24;62.45;99673.98;107680;1281;71365;-79
2022/08/15 06:20:25;;;;;;;8.40;6.50;;;;;;;22.30;62.42;99672.94;107429;1281;73301;-79
2022/08/15 06:23:54;;;;;;;6.80;6.10;;;;;;;22.36;62.15;99672.85;107003;1282;62570;-79
2022/08/15 06:26:36;;;;;;;7.10;6.40;;;;;;;22.44;62.24;99666.44;107541;1281;61994;-79
2022/08/15 06:29:27;;;;;;;7.80;6.60;;;;;;;22.51;62.08;99662.71;107258;1281;76029;-79
2022/08/15 06:32:15;;;;;;;9.60;6.70;;;;;;;22.57;61.93;99670.86;107347;1281;71438;-79
2022/08/15 06:34:58;;;;;;;8.20;6.30;;;;;;;22.65;61.72;99675.94;107307;1282;73739;-79
2022/08/15 06:37:45;;;;;;;8.40;6.60;;;;;;;22.70;61.74;99675.52;107525;1281;62046;-78
2022/08/15 06:40:47;;;;;;;9.80;6.30;;;;;;;22.75;61.84;99673.27;107421;1281;61968;-78
2022/08/15 06:43:21;;;;;;;9.80;6.50;;;;;;;22.83;61.57;99672.67;107037;1282;77443;-79
2022/08/15 06:45:54;;;;;;;9.60;6.60;;;;;;;22.90;61.37;99674.73;107213;1281;72472;-79
2022/08/15 06:48:25;;;;;;;8.40;7.60;;;;;;;22.99;61.20;99675.64;107321;1282;73573;-78
2022/08/15 06:51:15;;;;;;;11.10;6.40;;;;;;;23.10;60.99;99677.44;107266;1281;64016;-78
2022/08/15 06:53:51;;;;;;;8.20;7.00;;;;;;;23.19;60.62;99684.81;107242;1281;62071;-78
2022/08/15 06:56:37;;;;;;;8.20;6.30;;;;;;;23.27;60.70;99680.98;107286;1282;75621;-78
2022/08/15 06:59:23;;;;;;;7.10;6.20;;;;;;;23.32;60.49;99682.06;107006;1282;72054;-78
2022/08/15 07:02:30;;;;;;;9.80;7.10;;;;;;;23.40;60.35;99682.36;107350;1282;74055;-78
2022/08/15 07:05:22;;;;;;;9.30;6.20;;;;;;;23.53;60.04;99676.39;107429;1279;63257;-78
2022/08/15 07:08:04;;;;;;;8.70;6.20;;;;;;;23.60;59.90;99674.75;107207;1281;61977;-78
2022/08/15 07:10:59;;;;;;;8.30;6.10;;;;;;;23.68;59.65;99673.31;107295;1281;75817;-78
2022/08/15 07:13:30;;;;;;;9.00;6.70;;;;;;;23.75;59.45;99675.39;107316;1281;71983;-78
2022/08/15 07:16:34;;;;;;;9.20;6.30;;;;;;;23.80;58.89;99668.23;107316;1281;72895;-78
2022/08/15 07:19:02;;;;;;;8.70;6.50;;;;;;;23.89;58.71;99663.30;107334;1281;61673;-78
2022/08/15 07:21:30;;;;;;;7.70;6.20;;;;;;;23.98;58.57;99660.27;107290;1281;60404;-78
2022/08/15 07:24:17;;;;;;;11.90;6.70;;;;;;;24.14;58.54;99661.97;107058;1281;77549;-78
2022/08/15 07:27:04;;;;;;;11.80;7.40;;;;;;;24.30;58.22;99661.72;106970;1282;74200;-78
2022/08/15 07:30:03;;;;;;;11.80;6.30;;;;;;;24.42;57.73;99657.98;107315;1282;73099;-80
2022/08/15 07:32:41;;;;;;;10.20;6.60;;;;;;;24.57;57.29;99661.38;107294;1282;61729;-79
2022/08/15 07:35:12;;;;;;;12.70;8.80;;;;;;;24.69;57.04;99659.18;107479;1281;60313;-79
2022/08/15 07:38:05;;;;;;;11.60;6.70;;;;;;;24.82;56.94;99661.98;106939;1283;76955;-79
2022/08/15 07:41:24;;;;;;;9.20;6.90;;;;;;;25.02;56.63;99660.41;107492;1281;72947;-79
2022/08/15 07:43:57;;;;;;;10.10;6.20;;;;;;;25.17;56.07;99660.22;107573;1281;73844;-79
2022/08/15 07:46:40;;;;;;;8.20;6.20;;;;;;;25.32;55.95;99666.39;107046;1281;61781;-79
2022/08/15 07:49:27;;;;;;;12.60;6.90;;;;;;;25.47;55.21;99666.63;107201;1282;60758;-79
2022/08/15 07:52:13;;;;;;;10.00;6.40;;;;;;;25.60;54.69;99666.86;107372;1281;74340;-78
2022/08/15 07:55:20;;;;;;;10.40;6.10;;;;;;;25.73;54.52;99664.39;107397;1281;73034;-82
2022/08/15 07:58:13;;;;;;;11.30;6.20;;;;;;;25.81;53.71;99661.20;107398;1281;74294;-82
2022/08/15 08:01:22;;;;;;;10.70;6.10;;;;;;;25.95;53.78;99662.15;107329;1281;60515;-82
2022/08/15 08:04:09;;;;;;;9.50;6.10;;;;;;;26.15;53.03;99660.65;107318;1281;60749;-82
2022/08/15 08:07:04;;;;;;;7.90;5.90;;;;;;;26.29;52.38;99660.52;106799;1284;76313;-82
2022/08/15 08:09:53;;;;;;;14.10;6.50;;;;;;;26.47;52.21;99656.81;106851;1282;72149;-82
2022/08/15 08:12:56;;;;;;;12.10;6.00;;;;;;;26.74;51.85;99658.51;106989;1283;73775;-82
2022/08/15 08:16:01;;;;;;;13.20;6.40;;;;;;;27.12;51.30;99665.92;107052;1282;61184;-83
2022/08/15 08:18:50;;;;;;;13.20;6.70;;;;;;;27.44;49.66;99656.23;106828;1284;60100;-82
2022/08/15 08:21:23;;;;;;;10.70;6.80;;;;;;;27.72;49.32;99654.93;107329;1283;75604;-82
2022/08/15 08:24:01;;;;;;;13.30;7.00;;;;;;;27.91;48.68;99655.54;107141;1282;71450;-82
2022/08/15 08:26:29;;;;;;;10.00;6.60;;;;;;;28.03;48.10;99651.05;107096;1283;73127;-82
2022/08/15 08:29:14;;;;;;;12.20;6.80;;;;;;;28.14;48.30;99649.70;107397;1284;60996;-82
2022/08/15 08:32:03;;;;;;;12.50;7.10;;;;;;;28.28;48.36;99648.34;107210;1282;61543;-82
2022/08/15 08:34:58;;;;;;;11.90;6.90;;;;;;;28.49;47.07;99654.92;107126;1282;78831;-81
2022/08/15 08:37:41;;;;;;;11.80;6.60;;;;;;;28.61;46.61;99657.11;107012;1284;71837;-82
2022/08/15 08:44:06;;;;;;;11.40;6.60;;;;;;;28.86;46.70;99654.31;107228;1282;61248;-82
2022/08/15 08:47:21;;;;;;;11.50;6.80;;;;;;;28.94;45.70;99649.73;106885;1284;60961;-82
2022/08/15 08:50:08;;;;;;;15.30;7.00;;;;;;;29.01;45.64;99643.61;107048;1283;77164;-80
2022/08/15 08:53:13;;;;;;;11.00;6.30;;;;;;;29.19;45.91;99638.70;107022;1282;71202;-81
2022/08/15 08:56:15;;;;;;;15.10;6.80;;;;;;;29.17;45.41;99637.52;107145;1282;72970;-80
2022/08/15 08:59:23;;;;;;;12.80;6.70;;;;;;;29.23;44.79;99636.38;107178;1282;62169;-79
2022/08/15 09:02:00;;;;;;;10.60;6.60;;;;;;;29.39;45.10;99635.58;107222;1282;62143;-80
2022/08/15 09:04:50;;;;;;;9.30;6.50;;;;;;;29.47;44.39;99629.98;106824;1284;76609;-81
2022/08/15 09:07:24;;;;;;;12.30;6.20;;;;;;;29.46;44.50;99637.91;107059;1284;71201;-81
2022/08/15 09:09:55;;;;;;;10.70;5.90;;;;;;;29.47;44.52;99642.44;107029;1284;74390;-81
2022/08/15 09:15:29;;;;;;;8.90;6.40;;;;;;;29.32;44.24;99641.70;107122;1283;61885;-80
2022/08/15 09:18:18;;;;;;;11.00;6.00;;;;;;;29.35;44.29;99642.67;106861;1281;75703;-80
2022/08/15 09:20:46;;;;;;;11.10;6.30;;;;;;;29.57;44.44;99639.53;107088;1282;72094;-80
2022/08/15 09:23:20;;;;;;;10.10;6.30;;;;;;;29.81;43.99;99639.36;106794;1282;74732;-80
2022/08/15 09:26:21;;;;;;;11.30;5.70;;;;;;;30.00;43.10;99638.85;106810;1284;60721;-79
2022/08/15 09:29:07;;;;;;;9.50;6.30;;;;;;;30.14;42.88;99639.88;106914;1281;60617;-79
2022/08/15 09:31:59;;;;;;;10.50;6.20;;;;;;;30.24;42.68;99637.73;107035;1283;75462;-80
2022/08/15 09:35:04;;;;;;;9.10;5.80;;;;;;;30.31;42.22;99637.23;107231;1282;71624;-80
2022/08/15 09:38:12;;;;;;;9.20;5.80;;;;;;;30.44;42.04;99638.36;106668;1284;74886;-81
2022/08/15 09:41:40;;;;;;;12.20;6.50;;;;;;;30.50;41.28;99636.32;107308;1281;61476;-79
2022/08/15 09:59:35;;;;;;;8.60;5.40;;;;;;;32.00;38.74;99621.01;103476;1312;612658;-80
2022/08/15 10:02:15;;;;;;;7.10;5.60;;;;;;;32.23;38.02;99621.39;103671;1284;1514784;-80
2022/08/15 10:05:40;;;;;;;10.10;5.60;;;;;;;32.13;38.01;99618.58;104547;1284;62108;-80
2022/08/15 10:08:08;;;;;;;7.70;5.80;;;;;;;32.10;38.10;99613.00;105657;1284;74176;-79
2022/08/15 10:10:56;;;;;;;7.40;5.00;;;;;;;32.17;38.23;99612.42;106016;1284;73222;-81
2022/08/15 10:13:28;;;;;;;7.40;5.00;;;;;;;32.26;37.22;99613.45;104850;1283;72701;-84
2022/08/15 10:15:57;;;;;;;8.00;5.50;;;;;;;32.30;37.09;99606.76;104693;1284;60767;-81
2022/08/15 10:18:25;;;;;;;6.70;4.90;;;;;;;32.42;37.12;99601.85;107468;1279;61319;-81
2022/08/15 10:21:21;;;;;;;7.00;5.00;;;;;;;32.70;37.05;99596.38;105579;1279;72679;-81
2022/08/15 10:23:51;;;;;;;7.40;4.80;;;;;;;33.12;36.27;99596.08;105062;1277;72348;-81
2022/08/15 10:26:36;;;;;;;6.40;4.90;;;;;;;33.45;35.14;99591.57;105479;1277;71902;-82
2022/08/15 10:29:27;;;;;;;7.50;4.70;;;;;;;33.77;34.64;99588.33;106808;1277;60385;-81
2022/08/15 10:31:57;;;;;;;6.90;4.60;;;;;;;33.95;34.06;99588.49;105273;1278;60568;-80
2022/08/15 10:34:57;;;;;;;8.30;4.70;;;;;;;34.12;33.29;99588.73;105688;1280;75134;-80
2022/08/15 10:37:32;;;;;;;7.30;4.60;;;;;;;34.27;32.80;99583.98;106658;1279;72389;-81
2022/08/15 10:40:25;;;;;;;6.40;5.00;;;;;;;34.28;33.04;99581.57;105828;1277;73958;-82
2022/08/15 10:43:10;;;;;;;8.30;5.50;;;;;;;34.26;32.83;99581.14;105363;1280;61001;-81
2022/08/15 10:45:41;;;;;;;7.10;4.90;;;;;;;34.17;32.91;99583.80;105705;1277;60801;-81
2022/08/15 10:48:31;;;;;;;8.30;5.30;;;;;;;34.13;32.98;99577.42;106586;1277;73275;-82
2022/08/15 10:51:43;;;;;;;10.30;5.40;;;;;;;34.09;32.79;99576.45;105865;1279;70402;-80
2022/08/15 10:54:35;;;;;;;10.00;5.70;;;;;;;34.06;32.78;99576.85;105285;1280;73943;-80
2022/08/15 10:57:10;;;;;;;6.30;4.70;;;;;;;34.26;32.60;99574.06;106400;1279;61066;-80
2022/08/15 11:02:31;;;;;;;6.60;5.20;;;;;;;34.51;31.82;99568.42;105893;1271;71762;-80
2022/08/15 11:05:10;;;;;;;6.90;4.80;;;;;;;34.67;31.53;99567.27;105963;1281;71165;-80
2022/08/15 11:07:46;;;;;;;10.00;6.70;;;;;;;34.63;31.67;99570.00;105797;1282;73973;-80
2022/08/15 11:10:30;;;;;;;8.50;4.60;;;;;;;34.55;31.70;99565.67;105962;1280;60808;-81
2022/08/15 11:13:08;;;;;;;5.80;4.20;;;;;;;34.49;30.76;99566.42;104916;1284;60588;-80
2022/08/15 11:15:58;;;;;;;6.90;4.30;;;;;;;34.37;30.68;99563.36;106115;1281;73266;-81
2022/08/15 11:18:50;;;;;;;6.30;4.20;;;;;;;34.38;31.57;99554.81;105319;1283;71417;-82
2022/08/15 11:21:42;;;;;;;7.10;4.90;;;;;;;34.54;32.24;99555.81;107698;1280;72655;-79
2022/08/15 11:24:10;;;;;;;8.50;5.00;;;;;;;34.82;32.34;99555.10;105947;1280;62224;-79
2022/08/15 11:26:41;;;;;;;6.00;4.50;;;;;;;35.09;31.72;99555.17;105839;1281;60447;-80
2022/08/15 11:29:15;;;;;;;6.40;4.80;;;;;;;35.24;31.70;99555.59;105513;1281;73333;-79
2022/08/15 11:31:52;;;;;;;8.80;4.70;;;;;;;35.14;30.70;99556.04;104914;1283;69594;-81
2022/08/15 11:34:31;;;;;;;6.10;4.70;;;;;;;34.98;30.75;99550.42;105427;1283;72186;-80
2022/08/15 11:37:16;;;;;;;5.30;4.30;;;;;;;35.10;30.27;99549.20;105422;1280;60343;-79
2022/08/15 11:40:06;;;;;;;6.20;4.80;;;;;;;35.35;31.12;99550.25;104672;1281;59931;-79
2022/08/15 11:42:42;;;;;;;6.50;4.50;;;;;;;35.71;29.56;99546.23;104753;1283;73310;-79
2022/08/15 11:45:35;;;;;;;7.10;4.40;;;;;;;36.04;29.43;99543.51;105628;1282;74473;-78
2022/08/15 11:48:27;;;;;;;5.00;4.00;;;;;;;36.25;29.09;99539.14;105536;1281;72364;-79
2022/08/15 11:51:10;;;;;;;5.90;4.30;;;;;;;36.37;28.91;99534.38;104698;1284;60912;-80
2022/08/15 11:54:02;;;;;;;6.40;4.50;;;;;;;36.41;27.56;99530.95;105702;1282;60322;-79
2022/08/15 11:56:48;;;;;;;6.90;4.00;;;;;;;36.25;27.42;99532.81;107597;1283;74651;-80
2022/08/15 11:59:23;;;;;;;5.40;3.80;;;;;;;35.96;27.99;99537.33;106466;1280;72136;-78
2022/08/15 12:01:59;;;;;;;5.30;3.80;;;;;;;35.61;28.38;99533.15;107244;1282;73382;-79
2022/08/15 12:04:33;;;;;;;6.50;4.60;;;;;;;35.26;28.59;99540.34;106554;1283;61130;-80
2022/08/15 12:07:27;;;;;;;5.50;4.10;;;;;;;34.98;29.18;99533.65;105153;1283;59907;-77
2022/08/15 12:10:30;;;;;;;5.90;4.30;;;;;;;35.03;28.86;99529.63;105356;1283;75298;-79
2022/08/15 12:12:58;;;;;;;6.70;5.20;;;;;;;35.23;28.97;99534.85;107073;1282;72426;-80
2022/08/15 12:15:41;;;;;;;7.00;5.00;;;;;;;34.96;30.33;99530.85;105564;1283;73934;-81
2022/08/15 12:18:20;;;;;;;7.00;5.00;;;;;;;34.79;30.89;99528.76;104857;1283;61061;-80
2022/08/15 12:21:10;;;;;;;7.40;4.70;;;;;;;34.99;30.82;99533.12;105810;1284;59849;-81
2022/08/15 12:23:41;;;;;;;7.80;5.10;;;;;;;35.23;30.68;99527.29;106026;1281;73127;-81
2022/08/15 12:26:18;;;;;;;8.20;4.90;;;;;;;35.57;30.25;99522.69;104817;1281;71370;-82
2022/08/15 12:29:05;;;;;;;7.70;4.40;;;;;;;35.70;29.92;99536.14;105497;1284;74818;-80
2022/08/15 12:31:39;;;;;;;8.90;5.20;;;;;;;35.61;30.10;99532.98;106040;1281;60606;-81
2022/08/15 12:34:36;;;;;;;7.10;4.80;;;;;;;35.52;30.33;99540.41;105830;1283;61751;-80
2022/08/15 12:37:08;;;;;;;9.90;5.40;;;;;;;35.35;30.68;99549.37;105046;1284;73327;-80
2022/08/15 12:39:46;;;;;;;10.10;5.00;;;;;;;34.95;31.47;99541.08;104933;1284;71435;-80
2022/08/15 12:42:21;;;;;;;7.50;5.20;;;;;;;34.63;31.80;99541.91;106471;1281;74046;-81
2022/08/15 12:45:15;;;;;;;7.30;5.30;;;;;;;34.73;31.14;99547.14;104876;1283;60414;-80
2022/08/15 12:47:45;;;;;;;7.00;4.70;;;;;;;34.86;31.17;99553.11;105190;1281;60353;-79
2022/08/15 12:50:32;;;;;;;6.10;4.70;;;;;;;34.82;31.00;99570.12;105916;1281;75795;-79
2022/08/15 12:53:03;;;;;;;8.60;5.40;;;;;;;34.53;31.52;99577.75;105594;1283;72297;-79
2022/08/15 12:55:37;;;;;;;7.30;4.70;;;;;;;34.02;31.76;99586.68;104926;1281;72107;-79